Amorgos, Greece
Current Conditions -  °F | °C
As of 11:50 PM on Monday 24 Nov 2014 (Local Time) from LGHI Reporting Station
Broken Clouds Broken Clouds  
Wind Chill: 54°   Ceiling: 2500
Heat Index: 54°   Visibility: 6mi
Dew Point: 41°   Wind: 10mph
Humidity: 62%   Direction: 360°N
Pressure: 30.09"   Gusts: NA
Location:  38.83°N, 25.9°E
Report Text: LGHI 242050Z 36009KT 9999 FEW018 BKN025 BKN080 12/05 Q1019
Loading
Personal Weather Stations






























Interactive Weather Map New forecast layout! Learn more

10-Day Weather Forecast

Advertisements
Track Severe Weather on mobile